sensor_id;sensor_type;location;lat;lon;timestamp;P1;durP1;ratioP1;P2;durP2;ratioP2
77362;SDS011;66428;47.322;9.432;2023-07-13T00:01:00;4.93;;;2.63;;
77362;SDS011;66428;47.322;9.432;2023-07-13T00:03:29;4.60;;;2.42;;
77362;SDS011;66428;47.322;9.432;2023-07-13T00:06:01;4.95;;;2.47;;
77362;SDS011;66428;47.322;9.432;2023-07-13T00:08:30;4.80;;;2.97;;
77362;SDS011;66428;47.322;9.432;2023-07-13T00:10:59;5.43;;;2.88;;
77362;SDS011;66428;47.322;9.432;2023-07-13T00:13:27;5.88;;;3.15;;
77362;SDS011;66428;47.322;9.432;2023-07-13T00:15:54;5.00;;;2.80;;
77362;SDS011;66428;47.322;9.432;2023-07-13T00:18:22;4.43;;;2.53;;
77362;SDS011;66428;47.322;9.432;2023-07-13T00:20:51;5.10;;;2.38;;
77362;SDS011;66428;47.322;9.432;2023-07-13T00:23:19;5.45;;;2.67;;
77362;SDS011;66428;47.322;9.432;2023-07-13T00:25:49;4.63;;;2.30;;
77362;SDS011;66428;47.322;9.432;2023-07-13T00:28:17;4.05;;;2.53;;
77362;SDS011;66428;47.322;9.432;2023-07-13T00:30:45;6.07;;;3.33;;
77362;SDS011;66428;47.322;9.432;2023-07-13T00:33:15;4.68;;;2.45;;
77362;SDS011;66428;47.322;9.432;2023-07-13T00:35:46;5.47;;;2.60;;
77362;SDS011;66428;47.322;9.432;2023-07-13T00:38:18;4.90;;;2.83;;
77362;SDS011;66428;47.322;9.432;2023-07-13T00:40:49;6.03;;;2.53;;
77362;SDS011;66428;47.322;9.432;2023-07-13T00:43:17;4.50;;;2.95;;
77362;SDS011;66428;47.322;9.432;2023-07-13T00:46:12;6.50;;;2.90;;
77362;SDS011;66428;47.322;9.432;2023-07-13T00:48:42;5.18;;;3.08;;
77362;SDS011;66428;47.322;9.432;2023-07-13T00:51:11;4.80;;;2.25;;
77362;SDS011;66428;47.322;9.432;2023-07-13T00:53:41;4.25;;;2.28;;
77362;SDS011;66428;47.322;9.432;2023-07-13T00:56:09;4.10;;;2.63;;
77362;SDS011;66428;47.322;9.432;2023-07-13T00:58:38;4.50;;;2.05;;
77362;SDS011;66428;47.322;9.432;2023-07-13T01:01:08;5.55;;;2.45;;
77362;SDS011;66428;47.322;9.432;2023-07-13T01:03:36;5.60;;;2.95;;
77362;SDS011;66428;47.322;9.432;2023-07-13T01:06:04;4.00;;;2.40;;
77362;SDS011;66428;47.322;9.432;2023-07-13T01:08:32;4.05;;;2.20;;
77362;SDS011;66428;47.322;9.432;2023-07-13T01:11:01;3.60;;;2.35;;
77362;SDS011;66428;47.322;9.432;2023-07-13T01:13:31;4.88;;;2.83;;
77362;SDS011;66428;47.322;9.432;2023-07-13T01:16:01;5.20;;;2.70;;
77362;SDS011;66428;47.322;9.432;2023-07-13T01:18:30;3.92;;;2.35;;
77362;SDS011;66428;47.322;9.432;2023-07-13T01:21:01;4.75;;;3.00;;
77362;SDS011;66428;47.322;9.432;2023-07-13T01:23:29;5.57;;;2.70;;
77362;SDS011;66428;47.322;9.432;2023-07-13T01:25:57;4.07;;;2.42;;
77362;SDS011;66428;47.322;9.432;2023-07-13T01:28:28;5.78;;;2.90;;
77362;SDS011;66428;47.322;9.432;2023-07-13T01:30:58;4.18;;;2.40;;
77362;SDS011;66428;47.322;9.432;2023-07-13T01:33:28;5.25;;;2.72;;
77362;SDS011;66428;47.322;9.432;2023-07-13T01:35:56;4.88;;;2.35;;
77362;SDS011;66428;47.322;9.432;2023-07-13T01:38:26;4.40;;;2.50;;
77362;SDS011;66428;47.322;9.432;2023-07-13T01:40:56;5.60;;;2.95;;
77362;SDS011;66428;47.322;9.432;2023-07-13T01:43:24;5.13;;;3.28;;
77362;SDS011;66428;47.322;9.432;2023-07-13T01:45:52;5.00;;;2.65;;
77362;SDS011;66428;47.322;9.432;2023-07-13T01:48:32;4.45;;;2.72;;
77362;SDS011;66428;47.322;9.432;2023-07-13T01:51:00;4.57;;;2.22;;
77362;SDS011;66428;47.322;9.432;2023-07-13T01:53:31;3.97;;;2.00;;
77362;SDS011;66428;47.322;9.432;2023-07-13T01:56:01;3.63;;;2.08;;
77362;SDS011;66428;47.322;9.432;2023-07-13T01:58:28;4.50;;;2.65;;
77362;SDS011;66428;47.322;9.432;2023-07-13T02:00:56;4.75;;;2.78;;
77362;SDS011;66428;47.322;9.432;2023-07-13T02:03:24;4.07;;;2.33;;
77362;SDS011;66428;47.322;9.432;2023-07-13T02:05:52;6.30;;;2.40;;
77362;SDS011;66428;47.322;9.432;2023-07-13T02:08:19;3.83;;;2.20;;
77362;SDS011;66428;47.322;9.432;2023-07-13T02:10:48;5.75;;;2.28;;
77362;SDS011;66428;47.322;9.432;2023-07-13T02:13:16;3.60;;;2.00;;
77362;SDS011;66428;47.322;9.432;2023-07-13T02:15:44;4.18;;;2.35;;
77362;SDS011;66428;47.322;9.432;2023-07-13T02:18:11;4.65;;;2.00;;
77362;SDS011;66428;47.322;9.432;2023-07-13T02:20:43;4.60;;;2.08;;
77362;SDS011;66428;47.322;9.432;2023-07-13T02:23:11;3.75;;;2.42;;
77362;SDS011;66428;47.322;9.432;2023-07-13T02:25:39;4.05;;;1.95;;
77362;SDS011;66428;47.322;9.432;2023-07-13T02:28:11;5.93;;;3.10;;
77362;SDS011;66428;47.322;9.432;2023-07-13T02:30:39;4.80;;;2.40;;
77362;SDS011;66428;47.322;9.432;2023-07-13T02:33:06;4.05;;;2.13;;
77362;SDS011;66428;47.322;9.432;2023-07-13T02:35:34;4.80;;;2.22;;
77362;SDS011;66428;47.322;9.432;2023-07-13T02:38:02;3.78;;;2.40;;
77362;SDS011;66428;47.322;9.432;2023-07-13T02:40:30;4.15;;;2.40;;
77362;SDS011;66428;47.322;9.432;2023-07-13T02:42:59;4.20;;;2.05;;
77362;SDS011;66428;47.322;9.432;2023-07-13T02:45:31;7.18;;;2.10;;
77362;SDS011;66428;47.322;9.432;2023-07-13T02:47:59;3.65;;;1.98;;
77362;SDS011;66428;47.322;9.432;2023-07-13T02:50:27;3.42;;;1.90;;
77362;SDS011;66428;47.322;9.432;2023-07-13T02:52:57;4.43;;;1.90;;
77362;SDS011;66428;47.322;9.432;2023-07-13T02:55:24;4.03;;;1.88;;
77362;SDS011;66428;47.322;9.432;2023-07-13T02:57:52;3.15;;;2.15;;
77362;SDS011;66428;47.322;9.432;2023-07-13T03:00:22;4.32;;;2.45;;
77362;SDS011;66428;47.322;9.432;2023-07-13T03:02:55;4.95;;;2.30;;
77362;SDS011;66428;47.322;9.432;2023-07-13T03:05:25;4.00;;;2.55;;
77362;SDS011;66428;47.322;9.432;2023-07-13T03:07:56;6.88;;;2.33;;
77362;SDS011;66428;47.322;9.432;2023-07-13T03:10:24;3.78;;;2.25;;
77362;SDS011;66428;47.322;9.432;2023-07-13T03:12:52;3.70;;;1.88;;
77362;SDS011;66428;47.322;9.432;2023-07-13T03:15:23;3.22;;;2.13;;
77362;SDS011;66428;47.322;9.432;2023-07-13T03:17:57;3.42;;;2.00;;
77362;SDS011;66428;47.322;9.432;2023-07-13T03:20:25;4.20;;;2.33;;
77362;SDS011;66428;47.322;9.432;2023-07-13T03:22:53;3.88;;;2.30;;
77362;SDS011;66428;47.322;9.432;2023-07-13T03:25:23;5.13;;;2.38;;
77362;SDS011;66428;47.322;9.432;2023-07-13T03:27:51;4.32;;;2.53;;
77362;SDS011;66428;47.322;9.432;2023-07-13T03:30:21;4.78;;;2.50;;
77362;SDS011;66428;47.322;9.432;2023-07-13T03:32:49;5.15;;;2.22;;
77362;SDS011;66428;47.322;9.432;2023-07-13T03:35:18;3.72;;;2.03;;
77362;SDS011;66428;47.322;9.432;2023-07-13T03:37:46;4.47;;;2.58;;
77362;SDS011;66428;47.322;9.432;2023-07-13T03:40:19;3.88;;;2.42;;
77362;SDS011;66428;47.322;9.432;2023-07-13T03:42:46;5.60;;;2.50;;
77362;SDS011;66428;47.322;9.432;2023-07-13T03:45:16;5.13;;;2.70;;
77362;SDS011;66428;47.322;9.432;2023-07-13T03:47:45;4.05;;;2.35;;
77362;SDS011;66428;47.322;9.432;2023-07-13T03:50:18;5.38;;;2.13;;
77362;SDS011;66428;47.322;9.432;2023-07-13T03:52:46;4.18;;;2.10;;
77362;SDS011;66428;47.322;9.432;2023-07-13T03:55:15;5.13;;;2.08;;
77362;SDS011;66428;47.322;9.432;2023-07-13T03:57:43;4.45;;;2.20;;
77362;SDS011;66428;47.322;9.432;2023-07-13T04:00:12;6.88;;;2.90;;
77362;SDS011;66428;47.322;9.432;2023-07-13T04:02:43;4.35;;;2.35;;
77362;SDS011;66428;47.322;9.432;2023-07-13T04:05:14;4.38;;;2.17;;
77362;SDS011;66428;47.322;9.432;2023-07-13T04:07:45;4.18;;;2.58;;
77362;SDS011;66428;47.322;9.432;2023-07-13T04:10:13;3.45;;;2.15;;
77362;SDS011;66428;47.322;9.432;2023-07-13T04:12:43;4.25;;;2.55;;
77362;SDS011;66428;47.322;9.432;2023-07-13T04:15:13;3.90;;;2.50;;
77362;SDS011;66428;47.322;9.432;2023-07-13T04:17:40;4.47;;;2.50;;
77362;SDS011;66428;47.322;9.432;2023-07-13T04:20:09;4.53;;;2.08;;
77362;SDS011;66428;47.322;9.432;2023-07-13T04:22:36;4.38;;;2.03;;
77362;SDS011;66428;47.322;9.432;2023-07-13T04:25:06;5.05;;;2.50;;
77362;SDS011;66428;47.322;9.432;2023-07-13T04:30:06;4.32;;;2.53;;
77362;SDS011;66428;47.322;9.432;2023-07-13T04:32:36;5.20;;;2.72;;
77362;SDS011;66428;47.322;9.432;2023-07-13T04:35:04;4.57;;;2.40;;
77362;SDS011;66428;47.322;9.432;2023-07-13T04:37:32;4.90;;;2.20;;
77362;SDS011;66428;47.322;9.432;2023-07-13T04:40:00;5.55;;;3.40;;
77362;SDS011;66428;47.322;9.432;2023-07-13T04:42:31;4.47;;;2.25;;
77362;SDS011;66428;47.322;9.432;2023-07-13T04:45:00;3.58;;;2.05;;
77362;SDS011;66428;47.322;9.432;2023-07-13T04:47:30;3.90;;;1.92;;
77362;SDS011;66428;47.322;9.432;2023-07-13T04:50:01;3.13;;;1.77;;
77362;SDS011;66428;47.322;9.432;2023-07-13T04:52:29;5.30;;;2.88;;
77362;SDS011;66428;47.322;9.432;2023-07-13T04:54:59;4.32;;;2.42;;
77362;SDS011;66428;47.322;9.432;2023-07-13T04:57:27;4.10;;;2.50;;
77362;SDS011;66428;47.322;9.432;2023-07-13T04:59:56;3.50;;;1.88;;
77362;SDS011;66428;47.322;9.432;2023-07-13T05:02:29;6.63;;;2.55;;
77362;SDS011;66428;47.322;9.432;2023-07-13T05:05:01;5.88;;;2.38;;
77362;SDS011;66428;47.322;9.432;2023-07-13T05:07:32;5.05;;;2.53;;
77362;SDS011;66428;47.322;9.432;2023-07-13T05:10:00;4.35;;;2.00;;
77362;SDS011;66428;47.322;9.432;2023-07-13T05:12:28;5.15;;;2.90;;
77362;SDS011;66428;47.322;9.432;2023-07-13T05:14:58;4.50;;;2.38;;
77362;SDS011;66428;47.322;9.432;2023-07-13T05:17:26;5.15;;;3.20;;
77362;SDS011;66428;47.322;9.432;2023-07-13T05:19:54;5.68;;;3.15;;
77362;SDS011;66428;47.322;9.432;2023-07-13T05:22:24;3.88;;;2.40;;
77362;SDS011;66428;47.322;9.432;2023-07-13T05:24:52;4.82;;;2.97;;
77362;SDS011;66428;47.322;9.432;2023-07-13T05:27:19;4.53;;;2.40;;
77362;SDS011;66428;47.322;9.432;2023-07-13T05:29:47;6.07;;;3.00;;
77362;SDS011;66428;47.322;9.432;2023-07-13T05:32:16;4.95;;;2.65;;
77362;SDS011;66428;47.322;9.432;2023-07-13T05:34:44;6.70;;;3.10;;
77362;SDS011;66428;47.322;9.432;2023-07-13T05:37:12;5.18;;;3.10;;
77362;SDS011;66428;47.322;9.432;2023-07-13T05:39:39;7.57;;;3.47;;
77362;SDS011;66428;47.322;9.432;2023-07-13T05:42:09;5.32;;;2.80;;
77362;SDS011;66428;47.322;9.432;2023-07-13T05:44:40;4.07;;;2.55;;
77362;SDS011;66428;47.322;9.432;2023-07-13T05:47:08;3.65;;;2.80;;
77362;SDS011;66428;47.322;9.432;2023-07-13T05:49:37;7.32;;;3.10;;
77362;SDS011;66428;47.322;9.432;2023-07-13T05:52:07;6.13;;;2.50;;
77362;SDS011;66428;47.322;9.432;2023-07-13T05:54:35;6.75;;;2.83;;
77362;SDS011;66428;47.322;9.432;2023-07-13T05:57:03;4.78;;;2.42;;
77362;SDS011;66428;47.322;9.432;2023-07-13T05:59:31;5.00;;;2.63;;
77362;SDS011;66428;47.322;9.432;2023-07-13T06:02:02;4.82;;;2.35;;
77362;SDS011;66428;47.322;9.432;2023-07-13T06:04:29;5.10;;;2.60;;
77362;SDS011;66428;47.322;9.432;2023-07-13T06:06:58;5.93;;;2.70;;
77362;SDS011;66428;47.322;9.432;2023-07-13T06:09:26;5.20;;;3.38;;
77362;SDS011;66428;47.322;9.432;2023-07-13T06:11:56;5.13;;;2.45;;
77362;SDS011;66428;47.322;9.432;2023-07-13T06:14:26;7.05;;;2.72;;
77362;SDS011;66428;47.322;9.432;2023-07-13T06:16:56;6.32;;;3.42;;
77362;SDS011;66428;47.322;9.432;2023-07-13T06:19:24;4.35;;;2.33;;
77362;SDS011;66428;47.322;9.432;2023-07-13T06:21:52;5.05;;;2.60;;
77362;SDS011;66428;47.322;9.432;2023-07-13T06:24:26;4.22;;;2.50;;
77362;SDS011;66428;47.322;9.432;2023-07-13T06:26:54;5.32;;;2.65;;
77362;SDS011;66428;47.322;9.432;2023-07-13T06:29:24;3.35;;;2.38;;
77362;SDS011;66428;47.322;9.432;2023-07-13T06:31:51;4.57;;;2.50;;
77362;SDS011;66428;47.322;9.432;2023-07-13T06:34:21;5.85;;;2.40;;
77362;SDS011;66428;47.322;9.432;2023-07-13T06:36:49;5.75;;;2.72;;
77362;SDS011;66428;47.322;9.432;2023-07-13T06:39:17;5.28;;;2.75;;
77362;SDS011;66428;47.322;9.432;2023-07-13T06:41:46;4.55;;;2.45;;
77362;SDS011;66428;47.322;9.432;2023-07-13T06:44:14;4.20;;;2.45;;
77362;SDS011;66428;47.322;9.432;2023-07-13T06:46:41;5.32;;;2.53;;
77362;SDS011;66428;47.322;9.432;2023-07-13T06:49:12;3.53;;;2.40;;
77362;SDS011;66428;47.322;9.432;2023-07-13T06:51:40;4.72;;;2.45;;
77362;SDS011;66428;47.322;9.432;2023-07-13T06:54:07;4.20;;;2.40;;
77362;SDS011;66428;47.322;9.432;2023-07-13T06:56:35;3.97;;;2.10;;
77362;SDS011;66428;47.322;9.432;2023-07-13T06:59:04;5.85;;;3.53;;
77362;SDS011;66428;47.322;9.432;2023-07-13T07:01:32;4.45;;;2.92;;
77362;SDS011;66428;47.322;9.432;2023-07-13T07:04:00;4.47;;;2.67;;
77362;SDS011;66428;47.322;9.432;2023-07-13T07:06:27;4.65;;;2.95;;
77362;SDS011;66428;47.322;9.432;2023-07-13T07:08:57;6.85;;;3.08;;
77362;SDS011;66428;47.322;9.432;2023-07-13T07:11:25;6.75;;;3.28;;
77362;SDS011;66428;47.322;9.432;2023-07-13T07:13:55;5.60;;;2.78;;
77362;SDS011;66428;47.322;9.432;2023-07-13T07:16:24;4.80;;;2.83;;
77362;SDS011;66428;47.322;9.432;2023-07-13T07:18:52;6.68;;;2.85;;
77362;SDS011;66428;47.322;9.432;2023-07-13T07:21:20;2.80;;;1.70;;
77362;SDS011;66428;47.322;9.432;2023-07-13T07:23:49;5.30;;;2.70;;
77362;SDS011;66428;47.322;9.432;2023-07-13T07:26:17;4.10;;;2.35;;
77362;SDS011;66428;47.322;9.432;2023-07-13T07:28:44;3.72;;;2.60;;
77362;SDS011;66428;47.322;9.432;2023-07-13T07:31:36;6.72;;;2.42;;
77362;SDS011;66428;47.322;9.432;2023-07-13T07:34:09;5.45;;;2.53;;
77362;SDS011;66428;47.322;9.432;2023-07-13T07:36:39;5.35;;;2.65;;
77362;SDS011;66428;47.322;9.432;2023-07-13T07:39:27;3.72;;;2.45;;
77362;SDS011;66428;47.322;9.432;2023-07-13T07:41:57;5.00;;;2.17;;
77362;SDS011;66428;47.322;9.432;2023-07-13T07:44:27;6.38;;;3.03;;
77362;SDS011;66428;47.322;9.432;2023-07-13T07:46:56;5.95;;;2.95;;
77362;SDS011;66428;47.322;9.432;2023-07-13T07:49:24;4.47;;;2.63;;
77362;SDS011;66428;47.322;9.432;2023-07-13T07:51:52;5.40;;;2.60;;
77362;SDS011;66428;47.322;9.432;2023-07-13T07:54:20;7.30;;;3.20;;
77362;SDS011;66428;47.322;9.432;2023-07-13T07:57:07;5.10;;;2.95;;
77362;SDS011;66428;47.322;9.432;2023-07-13T07:59:39;6.43;;;2.90;;
77362;SDS011;66428;47.322;9.432;2023-07-13T08:02:11;6.10;;;3.55;;
77362;SDS011;66428;47.322;9.432;2023-07-13T08:05:01;7.43;;;4.05;;
77362;SDS011;66428;47.322;9.432;2023-07-13T08:07:32;4.32;;;2.88;;
77362;SDS011;66428;47.322;9.432;2023-07-13T08:09:59;6.57;;;3.13;;
77362;SDS011;66428;47.322;9.432;2023-07-13T08:12:27;5.85;;;3.78;;
77362;SDS011;66428;47.322;9.432;2023-07-13T08:14:58;7.72;;;3.20;;
77362;SDS011;66428;47.322;9.432;2023-07-13T08:17:28;6.38;;;3.17;;
77362;SDS011;66428;47.322;9.432;2023-07-13T08:19:56;7.20;;;3.92;;
77362;SDS011;66428;47.322;9.432;2023-07-13T08:22:24;5.22;;;3.45;;
77362;SDS011;66428;47.322;9.432;2023-07-13T08:24:51;7.90;;;3.60;;
77362;SDS011;66428;47.322;9.432;2023-07-13T08:27:23;4.95;;;3.58;;
77362;SDS011;66428;47.322;9.432;2023-07-13T08:29:53;5.57;;;3.22;;
77362;SDS011;66428;47.322;9.432;2023-07-13T08:32:21;5.30;;;3.42;;
77362;SDS011;66428;47.322;9.432;2023-07-13T08:34:51;6.20;;;3.72;;
77362;SDS011;66428;47.322;9.432;2023-07-13T08:39:49;5.47;;;3.13;;
77362;SDS011;66428;47.322;9.432;2023-07-13T08:42:24;6.00;;;3.13;;
77362;SDS011;66428;47.322;9.432;2023-07-13T08:44:54;5.25;;;3.58;;
77362;SDS011;66428;47.322;9.432;2023-07-13T08:47:24;6.05;;;2.63;;
77362;SDS011;66428;47.322;9.432;2023-07-13T08:49:54;6.93;;;2.88;;
77362;SDS011;66428;47.322;9.432;2023-07-13T08:52:28;5.28;;;2.97;;
77362;SDS011;66428;47.322;9.432;2023-07-13T08:54:57;4.15;;;2.35;;
77362;SDS011;66428;47.322;9.432;2023-07-13T08:57:31;4.90;;;2.55;;
77362;SDS011;66428;47.322;9.432;2023-07-13T09:00:00;4.03;;;2.47;;
77362;SDS011;66428;47.322;9.432;2023-07-13T09:02:34;4.30;;;2.60;;
77362;SDS011;66428;47.322;9.432;2023-07-13T09:05:10;3.92;;;2.65;;
77362;SDS011;66428;47.322;9.432;2023-07-13T09:07:42;4.15;;;2.60;;
77362;SDS011;66428;47.322;9.432;2023-07-13T09:10:18;4.78;;;3.00;;
77362;SDS011;66428;47.322;9.432;2023-07-13T09:12:50;3.88;;;3.08;;
77362;SDS011;66428;47.322;9.432;2023-07-13T09:15:25;5.70;;;2.80;;
77362;SDS011;66428;47.322;9.432;2023-07-13T09:17:53;4.63;;;2.78;;
77362;SDS011;66428;47.322;9.432;2023-07-13T09:20:26;4.65;;;3.35;;
77362;SDS011;66428;47.322;9.432;2023-07-13T09:22:56;5.13;;;2.75;;
77362;SDS011;66428;47.322;9.432;2023-07-13T09:25:27;6.82;;;3.88;;
77362;SDS011;66428;47.322;9.432;2023-07-13T09:27:57;6.10;;;3.42;;
77362;SDS011;66428;47.322;9.432;2023-07-13T09:30:31;5.82;;;3.95;;
77362;SDS011;66428;47.322;9.432;2023-07-13T09:33:00;5.45;;;3.60;;
77362;SDS011;66428;47.322;9.432;2023-07-13T09:35:29;6.10;;;3.80;;
77362;SDS011;66428;47.322;9.432;2023-07-13T09:37:58;6.70;;;3.63;;
77362;SDS011;66428;47.322;9.432;2023-07-13T09:43:15;6.05;;;3.78;;
77362;SDS011;66428;47.322;9.432;2023-07-13T09:45:45;4.90;;;3.80;;
77362;SDS011;66428;47.322;9.432;2023-07-13T09:48:13;5.32;;;3.50;;
77362;SDS011;66428;47.322;9.432;2023-07-13T09:50:43;7.20;;;3.53;;
77362;SDS011;66428;47.322;9.432;2023-07-13T09:53:11;6.35;;;3.92;;
77362;SDS011;66428;47.322;9.432;2023-07-13T09:55:40;6.32;;;3.50;;
77362;SDS011;66428;47.322;9.432;2023-07-13T09:58:09;6.60;;;4.20;;
77362;SDS011;66428;47.322;9.432;2023-07-13T10:00:38;5.68;;;3.83;;
77362;SDS011;66428;47.322;9.432;2023-07-13T10:03:14;5.65;;;3.17;;
77362;SDS011;66428;47.322;9.432;2023-07-13T10:05:45;6.85;;;3.45;;
77362;SDS011;66428;47.322;9.432;2023-07-13T10:08:24;7.72;;;3.45;;
77362;SDS011;66428;47.322;9.432;2023-07-13T10:10:58;6.88;;;3.45;;
77362;SDS011;66428;47.322;9.432;2023-07-13T10:13:30;7.15;;;4.45;;
77362;SDS011;66428;47.322;9.432;2023-07-13T10:15:58;6.70;;;3.78;;
77362;SDS011;66428;47.322;9.432;2023-07-13T10:18:38;6.50;;;3.90;;
77362;SDS011;66428;47.322;9.432;2023-07-13T10:21:14;10.13;;;3.63;;
77362;SDS011;66428;47.322;9.432;2023-07-13T10:23:46;5.88;;;4.18;;
77362;SDS011;66428;47.322;9.432;2023-07-13T10:26:16;6.18;;;3.83;;
77362;SDS011;66428;47.322;9.432;2023-07-13T10:28:45;7.50;;;3.58;;
77362;SDS011;66428;47.322;9.432;2023-07-13T10:31:17;5.32;;;3.30;;
77362;SDS011;66428;47.322;9.432;2023-07-13T10:33:48;6.65;;;3.33;;
77362;SDS011;66428;47.322;9.432;2023-07-13T10:36:20;5.10;;;3.40;;
77362;SDS011;66428;47.322;9.432;2023-07-13T10:38:50;5.50;;;3.70;;
77362;SDS011;66428;47.322;9.432;2023-07-13T10:41:19;4.95;;;3.42;;
77362;SDS011;66428;47.322;9.432;2023-07-13T10:43:48;6.32;;;3.80;;
77362;SDS011;66428;47.322;9.432;2023-07-13T10:46:18;7.22;;;3.92;;
77362;SDS011;66428;47.322;9.432;2023-07-13T10:48:47;5.78;;;3.92;;
77362;SDS011;66428;47.322;9.432;2023-07-13T10:51:16;5.03;;;3.78;;
77362;SDS011;66428;47.322;9.432;2023-07-13T10:56:33;5.22;;;3.53;;
77362;SDS011;66428;47.322;9.432;2023-07-13T10:59:02;7.68;;;3.90;;
77362;SDS011;66428;47.322;9.432;2023-07-13T11:01:39;6.40;;;3.40;;
77362;SDS011;66428;47.322;9.432;2023-07-13T11:04:11;5.50;;;3.35;;
77362;SDS011;66428;47.322;9.432;2023-07-13T11:06:42;6.32;;;3.78;;
77362;SDS011;66428;47.322;9.432;2023-07-13T11:09:28;4.32;;;3.05;;
77362;SDS011;66428;47.322;9.432;2023-07-13T11:12:02;5.88;;;3.33;;
77362;SDS011;66428;47.322;9.432;2023-07-13T11:14:31;4.55;;;3.00;;
77362;SDS011;66428;47.322;9.432;2023-07-13T11:19:46;4.70;;;3.22;;
77362;SDS011;66428;47.322;9.432;2023-07-13T11:22:22;5.20;;;3.40;;
77362;SDS011;66428;47.322;9.432;2023-07-13T11:24:52;4.78;;;3.10;;
77362;SDS011;66428;47.322;9.432;2023-07-13T11:27:31;5.20;;;3.50;;
77362;SDS011;66428;47.322;9.432;2023-07-13T11:32:52;6.35;;;3.58;;
77362;SDS011;66428;47.322;9.432;2023-07-13T11:35:36;9.88;;;4.82;;
77362;SDS011;66428;47.322;9.432;2023-07-13T11:38:09;5.75;;;3.63;;
77362;SDS011;66428;47.322;9.432;2023-07-13T11:40:39;11.55;;;5.95;;
77362;SDS011;66428;47.322;9.432;2023-07-13T11:43:11;7.85;;;5.60;;
77362;SDS011;66428;47.322;9.432;2023-07-13T11:45:42;10.75;;;5.78;;
77362;SDS011;66428;47.322;9.432;2023-07-13T11:48:18;7.53;;;5.63;;
77362;SDS011;66428;47.322;9.432;2023-07-13T11:50:51;7.95;;;5.65;;
77362;SDS011;66428;47.322;9.432;2023-07-13T11:53:22;8.82;;;6.28;;
77362;SDS011;66428;47.322;9.432;2023-07-13T11:55:57;9.68;;;5.85;;
77362;SDS011;66428;47.322;9.432;2023-07-13T11:58:31;8.95;;;6.03;;
77362;SDS011;66428;47.322;9.432;2023-07-13T12:01:00;7.97;;;5.10;;
77362;SDS011;66428;47.322;9.432;2023-07-13T12:03:33;7.47;;;4.82;;
77362;SDS011;66428;47.322;9.432;2023-07-13T12:06:03;4.97;;;3.80;;
77362;SDS011;66428;47.322;9.432;2023-07-13T12:08:37;5.97;;;4.03;;
77362;SDS011;66428;47.322;9.432;2023-07-13T12:11:11;4.28;;;3.47;;
77362;SDS011;66428;47.322;9.432;2023-07-13T12:13:43;6.20;;;3.85;;
77362;SDS011;66428;47.322;9.432;2023-07-13T12:16:12;6.38;;;3.80;;
77362;SDS011;66428;47.322;9.432;2023-07-13T12:18:42;6.90;;;4.20;;
77362;SDS011;66428;47.322;9.432;2023-07-13T12:21:13;6.35;;;4.22;;
77362;SDS011;66428;47.322;9.432;2023-07-13T12:23:44;6.93;;;4.97;;
77362;SDS011;66428;47.322;9.432;2023-07-13T12:26:15;7.38;;;5.18;;
77362;SDS011;66428;47.322;9.432;2023-07-13T12:28:48;6.53;;;4.22;;
77362;SDS011;66428;47.322;9.432;2023-07-13T12:31:25;7.50;;;4.30;;
77362;SDS011;66428;47.322;9.432;2023-07-13T12:33:56;5.95;;;4.15;;
77362;SDS011;66428;47.322;9.432;2023-07-13T12:36:24;6.35;;;4.20;;
77362;SDS011;66428;47.322;9.432;2023-07-13T12:38:57;6.40;;;4.70;;
77362;SDS011;66428;47.322;9.432;2023-07-13T12:41:25;6.25;;;3.72;;
77362;SDS011;66428;47.322;9.432;2023-07-13T12:43:55;6.82;;;3.92;;
77362;SDS011;66428;47.322;9.432;2023-07-13T12:46:25;8.38;;;3.72;;
77362;SDS011;66428;47.322;9.432;2023-07-13T12:48:56;6.57;;;4.22;;
77362;SDS011;66428;47.322;9.432;2023-07-13T12:51:43;5.25;;;3.88;;
77362;SDS011;66428;47.322;9.432;2023-07-13T12:54:13;6.45;;;3.80;;
77362;SDS011;66428;47.322;9.432;2023-07-13T12:56:42;6.68;;;3.40;;
77362;SDS011;66428;47.322;9.432;2023-07-13T12:59:15;5.90;;;3.35;;
77362;SDS011;66428;47.322;9.432;2023-07-13T13:01:44;4.78;;;2.90;;
77362;SDS011;66428;47.322;9.432;2023-07-13T13:04:14;6.65;;;3.17;;
77362;SDS011;66428;47.322;9.432;2023-07-13T13:06:42;4.60;;;3.00;;
77362;SDS011;66428;47.322;9.432;2023-07-13T13:09:11;5.93;;;2.75;;
77362;SDS011;66428;47.322;9.432;2023-07-13T13:11:39;3.63;;;2.28;;
77362;SDS011;66428;47.322;9.432;2023-07-13T13:14:07;5.05;;;2.08;;
77362;SDS011;66428;47.322;9.432;2023-07-13T13:16:37;3.97;;;2.05;;
77362;SDS011;66428;47.322;9.432;2023-07-13T13:19:10;3.42;;;1.80;;
77362;SDS011;66428;47.322;9.432;2023-07-13T13:21:39;3.08;;;1.90;;
77362;SDS011;66428;47.322;9.432;2023-07-13T13:24:10;2.33;;;1.40;;
77362;SDS011;66428;47.322;9.432;2023-07-13T13:26:38;2.47;;;1.40;;
77362;SDS011;66428;47.322;9.432;2023-07-13T13:29:10;2.47;;;1.38;;
77362;SDS011;66428;47.322;9.432;2023-07-13T13:31:41;2.08;;;1.30;;
77362;SDS011;66428;47.322;9.432;2023-07-13T13:34:12;4.05;;;2.08;;
77362;SDS011;66428;47.322;9.432;2023-07-13T13:36:41;2.40;;;1.38;;
77362;SDS011;66428;47.322;9.432;2023-07-13T13:39:19;3.92;;;2.33;;
77362;SDS011;66428;47.322;9.432;2023-07-13T13:41:51;4.45;;;3.10;;
77362;SDS011;66428;47.322;9.432;2023-07-13T13:44:22;4.15;;;2.42;;
77362;SDS011;66428;47.322;9.432;2023-07-13T13:46:55;3.45;;;2.00;;
77362;SDS011;66428;47.322;9.432;2023-07-13T13:49:23;3.65;;;2.30;;
77362;SDS011;66428;47.322;9.432;2023-07-13T13:51:51;4.47;;;2.42;;
77362;SDS011;66428;47.322;9.432;2023-07-13T13:54:19;4.05;;;2.10;;
77362;SDS011;66428;47.322;9.432;2023-07-13T13:56:48;3.30;;;2.00;;
77362;SDS011;66428;47.322;9.432;2023-07-13T13:59:18;3.95;;;2.55;;
77362;SDS011;66428;47.322;9.432;2023-07-13T14:01:47;3.33;;;1.95;;
77362;SDS011;66428;47.322;9.432;2023-07-13T14:04:18;4.03;;;1.70;;
77362;SDS011;66428;47.322;9.432;2023-07-13T14:06:46;3.47;;;1.90;;
77362;SDS011;66428;47.322;9.432;2023-07-13T14:09:18;4.05;;;2.75;;
77362;SDS011;66428;47.322;9.432;2023-07-13T14:11:46;4.18;;;2.20;;
77362;SDS011;66428;47.322;9.432;2023-07-13T14:14:17;3.38;;;2.20;;
77362;SDS011;66428;47.322;9.432;2023-07-13T14:16:46;3.50;;;2.03;;
77362;SDS011;66428;47.322;9.432;2023-07-13T14:19:21;4.20;;;2.17;;
77362;SDS011;66428;47.322;9.432;2023-07-13T14:21:51;4.22;;;2.55;;
77362;SDS011;66428;47.322;9.432;2023-07-13T14:24:20;4.28;;;2.22;;
77362;SDS011;66428;47.322;9.432;2023-07-13T14:26:48;2.90;;;1.73;;
77362;SDS011;66428;47.322;9.432;2023-07-13T14:29:19;4.57;;;1.90;;
77362;SDS011;66428;47.322;9.432;2023-07-13T14:31:52;2.92;;;1.52;;
77362;SDS011;66428;47.322;9.432;2023-07-13T14:34:24;4.10;;;1.73;;
77362;SDS011;66428;47.322;9.432;2023-07-13T14:36:51;4.57;;;1.88;;
77362;SDS011;66428;47.322;9.432;2023-07-13T14:39:20;3.00;;;1.52;;
77362;SDS011;66428;47.322;9.432;2023-07-13T14:41:51;3.25;;;1.67;;
77362;SDS011;66428;47.322;9.432;2023-07-13T14:44:22;2.45;;;1.55;;
77362;SDS011;66428;47.322;9.432;2023-07-13T14:46:52;2.80;;;1.48;;
77362;SDS011;66428;47.322;9.432;2023-07-13T14:49:21;4.18;;;1.90;;
77362;SDS011;66428;47.322;9.432;2023-07-13T14:51:52;4.95;;;2.05;;
77362;SDS011;66428;47.322;9.432;2023-07-13T14:54:21;3.17;;;2.05;;
77362;SDS011;66428;47.322;9.432;2023-07-13T14:56:49;4.50;;;2.30;;
77362;SDS011;66428;47.322;9.432;2023-07-13T14:59:19;4.93;;;2.72;;
77362;SDS011;66428;47.322;9.432;2023-07-13T15:01:47;3.80;;;2.38;;
77362;SDS011;66428;47.322;9.432;2023-07-13T15:04:16;3.50;;;2.50;;
77362;SDS011;66428;47.322;9.432;2023-07-13T15:06:54;4.75;;;2.55;;
77362;SDS011;66428;47.322;9.432;2023-07-13T15:09:24;4.18;;;2.30;;
77362;SDS011;66428;47.322;9.432;2023-07-13T15:11:52;4.53;;;2.30;;
77362;SDS011;66428;47.322;9.432;2023-07-13T15:14:20;4.18;;;2.47;;
77362;SDS011;66428;47.322;9.432;2023-07-13T15:16:49;4.63;;;2.50;;
77362;SDS011;66428;47.322;9.432;2023-07-13T15:19:17;5.25;;;2.50;;
77362;SDS011;66428;47.322;9.432;2023-07-13T15:21:46;3.83;;;2.60;;